createdAt,value
2019-05-23T00:01:04.718Z,12.00
2019-05-23T00:04:15.574Z,12.00
2019-05-23T00:07:11.138Z,12.00
2019-05-23T00:10:03.847Z,11.90
2019-05-23T00:12:48.773Z,11.90
2019-05-23T00:15:29.226Z,11.90
2019-05-23T00:18:01.671Z,11.90
2019-05-23T00:20:34.513Z,11.90
2019-05-23T00:23:07.135Z,11.90
2019-05-23T00:25:40.207Z,11.90
2019-05-23T00:28:11.545Z,11.90
2019-05-23T00:30:58.042Z,11.90
2019-05-23T00:33:30.702Z,11.90
2019-05-23T00:36:02.267Z,11.90
2019-05-23T00:38:35.339Z,11.90
2019-05-23T00:41:07.239Z,11.90
2019-05-23T00:43:39.433Z,11.80
2019-05-23T00:46:11.352Z,11.80
2019-05-23T00:48:42.835Z,11.80
2019-05-23T00:51:16.006Z,11.80
2019-05-23T00:53:47.697Z,11.80
2019-05-23T00:56:20.672Z,11.80
2019-05-23T00:58:52.147Z,11.80
2019-05-23T01:01:25.121Z,11.80
2019-05-23T01:03:56.718Z,11.80
2019-05-23T01:06:27.926Z,11.80
2019-05-23T01:09:00.019Z,11.80
2019-05-23T01:11:31.670Z,11.80
2019-05-23T01:14:03.745Z,11.80
2019-05-23T01:16:36.708Z,11.70
2019-05-23T01:19:09.642Z,11.70
2019-05-23T01:21:58.762Z,11.70
2019-05-23T01:24:35.496Z,11.70
2019-05-23T01:27:07.398Z,11.70
2019-05-23T01:29:42.238Z,11.70
2019-05-23T01:32:42.358Z,11.70
2019-05-23T01:35:17.390Z,11.70
2019-05-23T01:37:49.402Z,11.60
2019-05-23T01:40:21.833Z,11.60
2019-05-23T01:42:53.335Z,11.60
2019-05-23T01:45:26.812Z,11.60
2019-05-23T01:47:59.203Z,11.60
2019-05-23T01:50:30.561Z,11.60
2019-05-23T01:53:02.916Z,11.60
2019-05-23T01:55:34.492Z,11.60
2019-05-23T01:58:06.811Z,11.60
2019-05-23T02:00:40.042Z,11.60
2019-05-23T02:03:11.590Z,11.60
2019-05-23T02:05:42.941Z,11.60
2019-05-23T02:08:15.616Z,11.60
2019-05-23T02:10:47.015Z,11.60
2019-05-23T02:13:18.356Z,11.50
2019-05-23T02:15:49.900Z,11.60
2019-05-23T02:18:23.708Z,11.60
2019-05-23T02:20:55.456Z,11.60
2019-05-23T02:23:27.246Z,11.60
2019-05-23T02:25:59.670Z,11.60
2019-05-23T02:28:31.558Z,11.50
2019-05-23T02:31:02.844Z,11.50
2019-05-23T02:33:34.558Z,11.50
2019-05-23T02:36:06.795Z,11.50
2019-05-23T02:39:01.477Z,11.50
2019-05-23T02:41:43.988Z,11.50
2019-05-23T02:44:17.804Z,11.40
2019-05-23T02:47:06.594Z,11.40
2019-05-23T02:49:38.263Z,11.40
2019-05-23T02:52:24.051Z,11.40
2019-05-23T02:54:56.467Z,11.40
2019-05-23T02:57:30.348Z,11.40
2019-05-23T03:00:16.878Z,11.40
2019-05-23T03:02:54.691Z,11.40
2019-05-23T03:05:27.311Z,11.40
2019-05-23T03:08:01.802Z,11.40
2019-05-23T03:10:57.095Z,11.40
2019-05-23T03:13:32.759Z,11.40
2019-05-23T03:16:06.067Z,11.40
2019-05-23T03:18:42.849Z,11.30
2019-05-23T03:21:15.236Z,11.30
2019-05-23T03:23:49.690Z,11.30
2019-05-23T03:27:01.487Z,11.30
2019-05-23T03:29:34.562Z,11.30
2019-05-23T03:32:18.254Z,11.30
2019-05-23T03:34:54.065Z,11.20
2019-05-23T03:37:25.395Z,11.20
2019-05-23T03:39:57.391Z,11.20
2019-05-23T03:42:28.938Z,11.20
2019-05-23T03:45:00.601Z,11.20
2019-05-23T03:47:32.718Z,11.20
2019-05-23T03:50:05.731Z,11.20
2019-05-23T03:52:37.713Z,11.20
2019-05-23T03:55:09.084Z,11.20
2019-05-23T03:57:42.044Z,11.10
2019-05-23T04:00:17.694Z,11.10
2019-05-23T04:02:51.131Z,11.10
2019-05-23T04:05:22.963Z,11.10
2019-05-23T04:07:54.723Z,11.10
2019-05-23T04:10:26.139Z,11.10
2019-05-23T04:12:57.488Z,11.10
2019-05-23T04:15:29.665Z,11.10
2019-05-23T04:18:01.334Z,11.10
2019-05-23T04:20:32.839Z,11.10
2019-05-23T04:23:05.882Z,11.10
2019-05-23T04:25:37.315Z,11.10
2019-05-23T04:28:08.818Z,11.10
2019-05-23T04:30:40.386Z,11.10
2019-05-23T04:33:11.567Z,11.20
2019-05-23T04:35:42.994Z,11.20
2019-05-23T04:38:15.177Z,11.20
2019-05-23T04:40:46.829Z,11.20
2019-05-23T04:43:18.210Z,11.20
2019-05-23T04:45:50.319Z,11.20
2019-05-23T04:48:22.571Z,11.20
2019-05-23T04:50:53.857Z,11.20
2019-05-23T04:53:25.159Z,11.20
2019-05-23T04:55:56.691Z,11.20
2019-05-23T04:58:28.379Z,11.20
2019-05-23T05:01:01.497Z,11.20
2019-05-23T05:03:34.062Z,11.30
2019-05-23T05:06:06.342Z,11.30
2019-05-23T05:08:39.436Z,11.30
2019-05-23T05:11:10.730Z,11.30
2019-05-23T05:13:42.584Z,11.30
2019-05-23T05:16:16.653Z,11.40
2019-05-23T05:18:48.434Z,11.40
2019-05-23T05:21:19.652Z,11.40
2019-05-23T05:23:51.932Z,11.40
2019-05-23T05:26:24.335Z,11.50
2019-05-23T05:28:59.308Z,11.50
2019-05-23T05:31:30.881Z,11.40
2019-05-23T05:34:02.130Z,11.50
2019-05-23T05:36:33.936Z,11.50
2019-05-23T05:39:08.230Z,11.50
2019-05-23T05:41:39.672Z,11.60
2019-05-23T05:44:11.738Z,11.60
2019-05-23T05:46:43.901Z,11.60
2019-05-23T05:49:16.455Z,11.60
2019-05-23T05:51:47.798Z,11.60
2019-05-23T05:54:19.274Z,11.60
2019-05-23T05:56:50.647Z,11.60
2019-05-23T05:59:21.979Z,11.70
2019-05-23T06:01:53.431Z,11.70
2019-05-23T06:04:24.643Z,11.80
2019-05-23T06:07:15.332Z,11.80
2019-05-23T06:09:46.914Z,11.80
2019-05-23T06:12:18.504Z,11.80
2019-05-23T06:14:49.817Z,11.80
2019-05-23T06:17:21.755Z,11.80
2019-05-23T06:19:53.396Z,11.80
2019-05-23T06:22:25.945Z,11.80
2019-05-23T06:24:58.266Z,11.80
2019-05-23T06:27:30.446Z,11.80
2019-05-23T06:30:02.586Z,11.80
2019-05-23T06:32:35.821Z,11.80
2019-05-23T06:35:08.164Z,11.80
2019-05-23T06:37:39.904Z,11.90
2019-05-23T06:40:12.616Z,11.90
2019-05-23T06:42:44.517Z,11.90
2019-05-23T06:45:16.467Z,11.90
2019-05-23T06:47:47.837Z,11.90
2019-05-23T06:50:21.521Z,11.90
2019-05-23T06:52:53.309Z,11.90
2019-05-23T06:55:24.558Z,11.90
2019-05-23T06:57:56.039Z,11.90
2019-05-23T07:00:29.723Z,12.00
2019-05-23T07:03:00.952Z,12.00
2019-05-23T07:05:37.009Z,12.00
2019-05-23T07:08:12.282Z,12.00
2019-05-23T07:10:49.355Z,12.00
2019-05-23T07:13:32.279Z,12.00
2019-05-23T07:16:04.915Z,12.00
2019-05-23T07:18:36.257Z,11.90
2019-05-23T07:21:09.904Z,11.80
2019-05-23T07:23:41.161Z,11.70
2019-05-23T07:26:14.523Z,11.70
2019-05-23T07:28:47.499Z,11.70
2019-05-23T07:31:19.383Z,11.60
2019-05-23T07:34:01.876Z,11.60
2019-05-23T07:36:26.568Z,11.70
2019-05-23T07:38:59.157Z,11.70
2019-05-23T07:41:31.839Z,11.70
2019-05-23T07:44:05.835Z,11.80
2019-05-23T07:46:37.861Z,11.80
2019-05-23T07:49:10.298Z,11.80
2019-05-23T07:51:42.301Z,11.70
2019-05-23T07:54:30.050Z,11.70
2019-05-23T07:57:02.094Z,11.70
2019-05-23T07:59:34.375Z,11.70
2019-05-23T08:02:15.917Z,11.70
2019-05-23T08:04:47.507Z,11.70
2019-05-23T08:07:19.537Z,11.80
2019-05-23T08:09:51.011Z,11.70
2019-05-23T08:12:23.076Z,11.80
2019-05-23T08:14:54.640Z,11.70
2019-05-23T08:17:26.757Z,11.70
2019-05-23T08:19:58.220Z,11.70
2019-05-23T08:22:30.565Z,11.70
2019-05-23T08:25:02.309Z,11.70
2019-05-23T08:27:34.352Z,11.70
2019-05-23T08:30:07.715Z,11.70
2019-05-23T08:32:39.494Z,11.70
2019-05-23T08:35:15.973Z,11.70
2019-05-23T08:37:44.347Z,11.70
2019-05-23T08:40:19.256Z,11.80
2019-05-23T08:42:51.750Z,11.80
2019-05-23T08:45:23.241Z,11.80
2019-05-23T08:47:55.310Z,11.80
2019-05-23T08:50:28.499Z,11.80
2019-05-23T08:53:01.064Z,11.70
2019-05-23T08:55:33.673Z,11.70
2019-05-23T08:58:06.098Z,11.70
2019-05-23T09:00:39.854Z,11.60
2019-05-23T09:03:11.642Z,11.70
2019-05-23T09:05:45.298Z,11.70
2019-05-23T09:08:18.563Z,11.70
2019-05-23T09:10:50.989Z,11.80
2019-05-23T09:13:23.466Z,11.90
2019-05-23T09:15:55.665Z,11.90
2019-05-23T09:18:29.135Z,12.00
2019-05-23T09:21:01.813Z,12.10
2019-05-23T09:23:33.858Z,12.20
2019-05-23T09:26:06.261Z,12.10
2019-05-23T09:28:37.869Z,12.20
2019-05-23T09:31:10.678Z,12.30
2019-05-23T09:33:42.774Z,12.40
2019-05-23T09:36:14.147Z,12.60
2019-05-23T09:38:46.495Z,12.80
2019-05-23T09:41:18.417Z,13.00
2019-05-23T09:43:50.568Z,13.10
2019-05-23T09:46:22.694Z,13.00
2019-05-23T09:48:54.619Z,13.00
2019-05-23T09:51:26.980Z,12.90
2019-05-23T09:53:59.219Z,12.90
2019-05-23T09:56:31.648Z,12.80
2019-05-23T09:59:03.134Z,12.80
2019-05-23T10:01:35.130Z,12.80
2019-05-23T10:04:08.168Z,12.70
2019-05-23T10:06:40.032Z,12.60
2019-05-23T10:09:11.573Z,12.60
2019-05-23T10:11:43.763Z,12.70
2019-05-23T10:14:20.677Z,12.70
2019-05-23T10:16:52.014Z,12.70
2019-05-23T10:19:23.646Z,12.80
2019-05-23T10:21:55.305Z,12.90
2019-05-23T10:24:26.887Z,12.90
2019-05-23T10:26:58.210Z,13.10
2019-05-23T10:29:29.553Z,13.20
2019-05-23T10:32:00.747Z,13.30
2019-05-23T10:34:31.941Z,13.30
2019-05-23T10:37:03.804Z,13.30
2019-05-23T10:39:35.652Z,13.20
2019-05-23T10:42:06.915Z,13.30
2019-05-23T10:44:38.118Z,13.30
2019-05-23T10:47:09.233Z,13.40
2019-05-23T10:49:40.744Z,13.40
2019-05-23T10:52:12.944Z,13.40
2019-05-23T10:54:44.163Z,13.30
2019-05-23T10:57:15.574Z,13.30
2019-05-23T10:59:46.866Z,13.30
2019-05-23T11:02:18.822Z,13.30
2019-05-23T11:04:51.138Z,13.30
2019-05-23T11:07:22.616Z,13.40
2019-05-23T11:09:54.269Z,13.30
2019-05-23T11:12:25.684Z,13.40
2019-05-23T11:14:56.884Z,13.40
2019-05-23T11:17:29.238Z,13.30
2019-05-23T11:20:00.760Z,13.30
2019-05-23T11:22:32.061Z,13.40
2019-05-23T11:25:05.376Z,13.50
2019-05-23T11:27:36.987Z,13.60
2019-05-23T11:30:09.597Z,13.70
2019-05-23T11:32:40.989Z,13.70
2019-05-23T11:35:12.656Z,13.60
2019-05-23T11:37:43.933Z,13.60
2019-05-23T11:40:15.955Z,13.60
2019-05-23T11:42:47.277Z,13.60
2019-05-23T11:45:18.743Z,13.60
2019-05-23T11:47:50.201Z,13.50
2019-05-23T11:50:21.740Z,13.40
2019-05-23T11:52:55.943Z,13.30
2019-05-23T11:55:26.004Z,13.20
2019-05-23T11:57:57.222Z,13.30
2019-05-23T12:01:20.585Z,13.30
2019-05-23T12:03:46.409Z,13.30
2019-05-23T12:06:18.161Z,13.20
2019-05-23T12:08:49.500Z,13.20
2019-05-23T12:11:20.840Z,13.20
2019-05-23T12:13:52.225Z,13.20
2019-05-23T12:16:24.082Z,13.20
2019-05-23T12:18:55.845Z,13.20
2019-05-23T12:21:27.275Z,13.30
2019-05-23T12:23:59.010Z,13.40
2019-05-23T12:26:30.582Z,13.40
2019-05-23T12:29:02.137Z,13.50
2019-05-23T12:31:33.682Z,13.60
2019-05-23T12:34:05.490Z,13.60
2019-05-23T12:36:38.446Z,13.70
2019-05-23T12:39:11.205Z,13.80
2019-05-23T12:41:42.909Z,13.90
2019-05-23T12:44:17.459Z,13.90
2019-05-23T12:46:48.294Z,13.90
2019-05-23T12:49:27.810Z,14.00
2019-05-23T12:51:59.185Z,14.00
2019-05-23T12:54:31.308Z,13.90
2019-05-23T12:57:02.899Z,13.90
2019-05-23T12:59:35.441Z,13.90
2019-05-23T13:02:10.644Z,14.00
2019-05-23T13:04:42.309Z,14.10
2019-05-23T13:07:13.947Z,14.30
2019-05-23T13:09:45.546Z,14.50
2019-05-23T13:12:17.049Z,14.50
2019-05-23T13:14:48.383Z,14.60
2019-05-23T13:17:19.695Z,14.70
2019-05-23T13:19:51.031Z,14.80
2019-05-23T13:22:22.902Z,14.80
2019-05-23T13:24:54.342Z,14.80
2019-05-23T13:27:26.389Z,14.90
2019-05-23T13:29:57.750Z,15.00
2019-05-23T13:32:29.214Z,15.00
2019-05-23T13:35:00.748Z,15.00
2019-05-23T13:37:32.296Z,15.10
2019-05-23T13:40:03.833Z,15.10
2019-05-23T13:42:35.462Z,15.10
2019-05-23T13:45:07.282Z,15.10
2019-05-23T13:47:38.579Z,15.10
2019-05-23T13:50:10.788Z,15.10
2019-05-23T13:52:42.691Z,15.20
2019-05-23T13:55:14.545Z,15.20
2019-05-23T13:57:45.889Z,15.10
2019-05-23T14:00:18.371Z,15.10
2019-05-23T14:02:50.020Z,15.10
2019-05-23T14:05:21.811Z,15.10
2019-05-23T14:08:10.402Z,15.00
2019-05-23T14:10:27.260Z,15.00
2019-05-23T14:12:58.984Z,14.90
2019-05-23T14:15:38.823Z,14.80
2019-05-23T14:18:12.130Z,14.80
2019-05-23T14:20:44.351Z,14.90
2019-05-23T14:23:34.698Z,14.90
2019-05-23T14:26:06.531Z,15.00
2019-05-23T14:28:38.370Z,15.20
2019-05-23T14:31:20.218Z,15.30
2019-05-23T14:34:09.200Z,15.30
2019-05-23T14:37:09.543Z,15.30
2019-05-23T14:39:46.486Z,15.50
2019-05-23T14:42:43.143Z,15.40
2019-05-23T14:45:37.393Z,15.40
2019-05-23T14:48:18.962Z,15.30
2019-05-23T14:51:14.158Z,15.30
2019-05-23T14:53:49.072Z,15.20
2019-05-23T14:56:22.343Z,15.10
2019-05-23T14:58:54.262Z,15.20
2019-05-23T15:01:27.353Z,15.30
2019-05-23T15:03:58.848Z,15.30
2019-05-23T15:06:31.042Z,15.30
2019-05-23T15:09:02.840Z,15.20
2019-05-23T15:11:35.884Z,15.30
2019-05-23T15:14:07.564Z,15.30
2019-05-23T15:16:39.213Z,15.40
2019-05-23T15:19:11.270Z,15.30
2019-05-23T15:21:43.147Z,15.40
2019-05-23T15:24:14.872Z,15.30
2019-05-23T15:26:46.789Z,15.30
2019-05-23T15:29:18.097Z,15.30
2019-05-23T15:32:01.659Z,15.30
2019-05-23T15:34:23.135Z,15.20
2019-05-23T15:36:54.375Z,15.20
2019-05-23T15:39:25.924Z,15.20
2019-05-23T15:41:57.272Z,15.20
2019-05-23T15:44:30.444Z,15.20
2019-05-23T15:47:02.759Z,15.10
2019-05-23T15:49:34.266Z,15.10
2019-05-23T15:52:15.100Z,15.20
2019-05-23T15:54:54.070Z,15.20
2019-05-23T15:57:38.545Z,15.20
2019-05-23T16:00:32.359Z,15.20
2019-05-23T16:03:21.335Z,15.10
2019-05-23T16:05:53.253Z,15.10
2019-05-23T16:08:25.306Z,15.10
2019-05-23T16:10:56.937Z,15.10
2019-05-23T16:13:29.424Z,15.20
2019-05-23T16:16:00.940Z,15.20
2019-05-23T16:18:35.461Z,15.20
2019-05-23T16:21:07.753Z,15.30
2019-05-23T16:23:39.083Z,15.20
2019-05-23T16:26:11.683Z,15.20
2019-05-23T16:28:43.253Z,15.20
2019-05-23T16:31:14.821Z,15.10
2019-05-23T16:33:47.176Z,15.00
2019-05-23T16:36:19.058Z,15.00
2019-05-23T16:38:50.650Z,15.00
2019-05-23T16:41:22.180Z,15.00
2019-05-23T16:43:53.435Z,14.90
2019-05-23T16:46:27.010Z,14.90
2019-05-23T16:48:58.536Z,14.90
2019-05-23T16:51:29.799Z,14.90
2019-05-23T16:54:03.312Z,14.90
2019-05-23T16:56:53.662Z,14.90
2019-05-23T16:59:34.870Z,14.90
2019-05-23T17:02:25.484Z,14.90
2019-05-23T17:05:10.366Z,14.80
2019-05-23T17:08:04.892Z,14.80
2019-05-23T17:10:44.225Z,14.80
2019-05-23T17:13:44.992Z,14.70
2019-05-23T17:16:35.662Z,14.70
2019-05-23T17:19:12.825Z,14.70
2019-05-23T17:22:03.435Z,14.70
2019-05-23T17:25:00.841Z,14.70
2019-05-23T17:28:04.592Z,14.60
2019-05-23T17:30:56.972Z,14.60
2019-05-23T17:33:29.342Z,14.50
2019-05-23T17:36:01.334Z,14.40
2019-05-23T17:38:33.618Z,14.40
2019-05-23T17:41:07.076Z,14.40
2019-05-23T17:43:40.133Z,14.30
2019-05-23T17:46:13.849Z,14.30
2019-05-23T17:48:47.395Z,14.30
2019-05-23T17:51:21.638Z,14.30
2019-05-23T17:53:54.155Z,14.20
2019-05-23T17:56:27.319Z,14.20
2019-05-23T17:59:01.844Z,14.20
2019-05-23T18:01:35.869Z,14.10
2019-05-23T18:04:08.547Z,14.10
2019-05-23T18:06:41.282Z,14.00
2019-05-23T18:09:15.666Z,14.00
2019-05-23T18:11:48.042Z,13.90
2019-05-23T18:14:20.918Z,13.90
2019-05-23T18:16:56.648Z,13.90
2019-05-23T18:19:30.546Z,13.90
2019-05-23T18:22:06.017Z,13.80
2019-05-23T18:24:39.569Z,13.80
2019-05-23T18:27:14.208Z,13.70
2019-05-23T18:29:47.017Z,13.70
2019-05-23T18:32:24.649Z,13.70
2019-05-23T18:34:57.192Z,13.60
2019-05-23T18:37:31.597Z,13.60
2019-05-23T18:40:06.647Z,13.50
2019-05-23T18:42:39.719Z,13.50
2019-05-23T18:45:12.437Z,13.50
2019-05-23T18:47:45.550Z,13.50
2019-05-23T18:50:20.211Z,13.40
2019-05-23T18:52:53.242Z,13.40
2019-05-23T18:55:26.179Z,13.40
2019-05-23T18:57:59.610Z,13.40
2019-05-23T19:01:04.692Z,13.40
2019-05-23T19:03:37.969Z,13.30
2019-05-23T19:06:11.193Z,13.30
2019-05-23T19:08:44.084Z,13.30
2019-05-23T19:11:21.242Z,13.20
2019-05-23T19:13:53.175Z,13.20
2019-05-23T19:16:27.672Z,13.10
2019-05-23T19:19:01.609Z,13.00
2019-05-23T19:21:35.146Z,13.00
2019-05-23T19:24:10.796Z,12.90
2019-05-23T19:26:44.062Z,12.70
2019-05-23T19:29:19.435Z,12.60
2019-05-23T19:31:53.497Z,12.60
2019-05-23T19:34:26.142Z,12.50
2019-05-23T19:36:59.890Z,12.40
2019-05-23T19:39:33.687Z,12.40
2019-05-23T19:42:06.583Z,12.40
2019-05-23T19:44:39.252Z,12.30
2019-05-23T19:47:12.372Z,12.30
2019-05-23T19:49:46.173Z,12.20
2019-05-23T19:52:23.200Z,12.20
2019-05-23T19:54:55.203Z,12.20
2019-05-23T19:57:30.948Z,12.20
2019-05-23T20:00:02.403Z,12.10
2019-05-23T20:02:54.647Z,12.10
2019-05-23T20:05:35.558Z,12.10
2019-05-23T20:08:07.751Z,12.10
2019-05-23T20:10:40.358Z,12.10
2019-05-23T20:13:13.600Z,12.00
2019-05-23T20:15:46.943Z,12.00
2019-05-23T20:18:19.706Z,11.90
2019-05-23T20:20:52.138Z,11.90
2019-05-23T20:23:24.631Z,11.90
2019-05-23T20:25:56.486Z,11.90
2019-05-23T20:28:30.018Z,11.90
2019-05-23T20:31:03.669Z,11.90
2019-05-23T20:33:36.425Z,11.90
2019-05-23T20:36:13.008Z,12.00
2019-05-23T20:38:47.259Z,11.90
2019-05-23T20:41:19.151Z,12.00
2019-05-23T20:43:51.041Z,12.00
2019-05-23T20:46:24.278Z,12.00
2019-05-23T20:48:55.943Z,12.00
2019-05-23T20:51:27.916Z,12.00
2019-05-23T20:54:01.574Z,12.00
2019-05-23T20:56:32.982Z,12.00
2019-05-23T20:59:06.045Z,12.00
2019-05-23T21:01:40.766Z,12.00
2019-05-23T21:04:13.670Z,11.90
2019-05-23T21:06:46.631Z,11.90
2019-05-23T21:09:19.267Z,11.80
2019-05-23T21:11:52.399Z,11.80
2019-05-23T21:14:25.455Z,11.70
2019-05-23T21:16:57.537Z,11.70
2019-05-23T21:19:29.431Z,11.60
2019-05-23T21:22:01.271Z,11.50
2019-05-23T21:24:34.452Z,11.50
2019-05-23T21:27:06.558Z,11.50
2019-05-23T21:29:40.669Z,11.50
2019-05-23T21:32:12.941Z,11.50
2019-05-23T21:34:44.981Z,11.50
2019-05-23T21:37:17.115Z,11.50
2019-05-23T21:39:51.674Z,11.60
2019-05-23T21:42:24.772Z,11.60
2019-05-23T21:44:57.156Z,11.60
2019-05-23T21:47:28.667Z,11.50
2019-05-23T21:50:00.392Z,11.50
2019-05-23T21:52:31.787Z,11.50
2019-05-23T21:55:07.407Z,11.50
2019-05-23T21:57:39.654Z,11.40
2019-05-23T22:00:13.854Z,11.40
2019-05-23T22:02:47.057Z,11.30
2019-05-23T22:05:19.766Z,11.30
2019-05-23T22:07:51.212Z,11.30
2019-05-23T22:10:23.050Z,11.30
2019-05-23T22:13:03.817Z,11.20
2019-05-23T22:15:38.038Z,11.20
2019-05-23T22:18:09.588Z,11.10
2019-05-23T22:20:41.099Z,11.00
2019-05-23T22:23:12.737Z,11.00
2019-05-23T22:25:44.102Z,10.90
2019-05-23T22:28:15.675Z,10.90
2019-05-23T22:30:48.285Z,10.80
2019-05-23T22:33:21.512Z,10.70
2019-05-23T22:35:54.944Z,10.70
2019-05-23T22:38:26.409Z,10.70
2019-05-23T22:40:57.795Z,10.60
2019-05-23T22:43:29.268Z,10.60
2019-05-23T22:46:00.634Z,10.60
2019-05-23T22:48:32.122Z,10.50
2019-05-23T22:51:03.277Z,10.50
2019-05-23T22:53:34.399Z,10.40
2019-05-23T22:56:05.846Z,10.40
2019-05-23T22:58:37.001Z,10.30
2019-05-23T23:01:08.503Z,10.20
2019-05-23T23:03:39.694Z,10.10
2019-05-23T23:06:11.263Z,10.00
2019-05-23T23:08:42.469Z,9.90
2019-05-23T23:11:13.658Z,9.80
2019-05-23T23:13:45.880Z,9.60
2019-05-23T23:16:17.095Z,9.50
2019-05-23T23:18:48.652Z,9.40
2019-05-23T23:21:20.524Z,9.30
2019-05-23T23:23:51.803Z,9.20
2019-05-23T23:26:22.936Z,9.10
2019-05-23T23:28:54.129Z,9.00
2019-05-23T23:31:25.397Z,8.90
2019-05-23T23:33:56.463Z,8.80
2019-05-23T23:36:27.684Z,8.70
2019-05-23T23:38:58.758Z,8.70
2019-05-23T23:41:30.484Z,8.60
2019-05-23T23:44:01.839Z,8.50
2019-05-23T23:46:50.586Z,8.50
2019-05-23T23:49:39.440Z,8.40
2019-05-23T23:52:28.004Z,8.30
2019-05-23T23:55:16.988Z,8.30
2019-05-23T23:57:59.538Z,8.20
